sensor_id;sensor_type;location;lat;lon;timestamp;noise_LAeq;noise_LA_min;noise_LA_max;noise_LA01;noise_LA95
78074;Laerm;67283;50.960;13.856;2023-08-24T00:02:11;30.48;28.39;54.30;;
78074;Laerm;67283;50.960;13.856;2023-08-24T00:04:42;30.07;28.74;37.36;;
78074;Laerm;67283;50.960;13.856;2023-08-24T00:07:10;30.31;28.62;42.75;;
78074;Laerm;67283;50.960;13.856;2023-08-24T00:09:38;30.20;28.93;40.43;;
78074;Laerm;67283;50.960;13.856;2023-08-24T00:12:06;52.82;28.96;70.29;;
78074;Laerm;67283;50.960;13.856;2023-08-24T00:14:35;31.44;29.03;58.43;;
78074;Laerm;67283;50.960;13.856;2023-08-24T00:17:03;30.54;28.67;45.04;;
78074;Laerm;67283;50.960;13.856;2023-08-24T00:19:31;56.05;29.04;73.33;;
78074;Laerm;67283;50.960;13.856;2023-08-24T00:22:02;30.52;28.85;49.97;;
78074;Laerm;67283;50.960;13.856;2023-08-24T00:24:30;30.44;28.71;49.23;;
78074;Laerm;67283;50.960;13.856;2023-08-24T00:26:58;30.20;28.60;39.05;;
78074;Laerm;67283;50.960;13.856;2023-08-24T00:29:26;30.29;28.97;47.50;;
78074;Laerm;67283;50.960;13.856;2023-08-24T00:31:54;30.15;28.50;39.44;;
78074;Laerm;67283;50.960;13.856;2023-08-24T00:34:22;30.41;28.58;40.60;;
78074;Laerm;67283;50.960;13.856;2023-08-24T00:36:51;30.25;28.66;33.56;;
78074;Laerm;67283;50.960;13.856;2023-08-24T00:39:22;30.77;28.91;56.97;;
78074;Laerm;67283;50.960;13.856;2023-08-24T00:41:50;30.29;28.86;45.65;;
78074;Laerm;67283;50.960;13.856;2023-08-24T00:44:18;32.66;28.67;62.90;;
78074;Laerm;67283;50.960;13.856;2023-08-24T00:46:47;30.26;28.76;38.84;;
78074;Laerm;67283;50.960;13.856;2023-08-24T00:49:15;30.39;28.69;46.31;;
78074;Laerm;67283;50.960;13.856;2023-08-24T00:51:43;30.09;28.72;34.35;;
78074;Laerm;67283;50.960;13.856;2023-08-24T00:54:11;30.35;28.49;36.54;;
78074;Laerm;67283;50.960;13.856;2023-08-24T00:56:42;51.92;28.86;72.94;;
78074;Laerm;67283;50.960;13.856;2023-08-24T00:59:10;51.92;28.86;72.94;;
78074;Laerm;67283;50.960;13.856;2023-08-24T01:01:39;31.45;28.61;62.52;;
78074;Laerm;67283;50.960;13.856;2023-08-24T01:04:07;30.14;28.81;35.41;;
78074;Laerm;67283;50.960;13.856;2023-08-24T01:06:36;30.34;28.69;46.73;;
78074;Laerm;67283;50.960;13.856;2023-08-24T01:09:04;30.22;28.31;51.36;;
78074;Laerm;67283;50.960;13.856;2023-08-24T01:14:21;30.10;28.56;38.03;;
78074;Laerm;67283;50.960;13.856;2023-08-24T01:16:50;30.11;28.52;36.17;;
78074;Laerm;67283;50.960;13.856;2023-08-24T01:19:25;32.21;28.64;63.40;;
78074;Laerm;67283;50.960;13.856;2023-08-24T01:21:58;30.05;28.63;47.68;;
78074;Laerm;67283;50.960;13.856;2023-08-24T01:24:30;29.88;28.53;42.80;;
78074;Laerm;67283;50.960;13.856;2023-08-24T01:27:02;29.83;28.45;44.43;;
78074;Laerm;67283;50.960;13.856;2023-08-24T01:29:31;52.96;28.33;71.18;;
78074;Laerm;67283;50.960;13.856;2023-08-24T01:31:59;29.67;28.33;34.83;;
78074;Laerm;67283;50.960;13.856;2023-08-24T01:34:28;29.67;28.33;34.83;;
78074;Laerm;67283;50.960;13.856;2023-08-24T01:36:56;29.62;28.27;35.14;;
78074;Laerm;67283;50.960;13.856;2023-08-24T01:39:25;29.63;28.20;36.02;;
78074;Laerm;67283;50.960;13.856;2023-08-24T01:41:55;29.67;28.23;36.39;;
78074;Laerm;67283;50.960;13.856;2023-08-24T01:44:26;29.73;28.48;31.40;;
78074;Laerm;67283;50.960;13.856;2023-08-24T01:46:56;49.59;28.60;67.98;;
78074;Laerm;67283;50.960;13.856;2023-08-24T01:49:26;52.41;28.53;71.81;;
78074;Laerm;67283;50.960;13.856;2023-08-24T01:51:54;32.43;28.47;62.65;;
78074;Laerm;67283;50.960;13.856;2023-08-24T01:54:22;30.45;28.74;43.17;;
78074;Laerm;67283;50.960;13.856;2023-08-24T01:56:50;30.06;28.32;49.29;;
78074;Laerm;67283;50.960;13.856;2023-08-24T01:59:18;30.27;28.43;50.71;;
78074;Laerm;67283;50.960;13.856;2023-08-24T02:01:49;44.87;28.31;61.08;;
78074;Laerm;67283;50.960;13.856;2023-08-24T02:04:17;44.87;28.31;61.08;;
78074;Laerm;67283;50.960;13.856;2023-08-24T02:06:45;36.67;28.53;56.34;;
78074;Laerm;67283;50.960;13.856;2023-08-24T02:09:13;29.99;28.25;45.92;;
78074;Laerm;67283;50.960;13.856;2023-08-24T02:11:41;54.79;28.63;74.24;;
78074;Laerm;67283;50.960;13.856;2023-08-24T02:14:09;29.99;28.67;37.01;;
78074;Laerm;67283;50.960;13.856;2023-08-24T02:16:37;55.82;29.28;73.63;;
78074;Laerm;67283;50.960;13.856;2023-08-24T02:19:08;52.80;28.72;70.07;;
78074;Laerm;67283;50.960;13.856;2023-08-24T02:21:36;29.97;28.64;38.09;;
78074;Laerm;67283;50.960;13.856;2023-08-24T02:24:04;50.42;28.67;70.56;;
78074;Laerm;67283;50.960;13.856;2023-08-24T02:26:33;55.93;29.53;70.05;;
78074;Laerm;67283;50.960;13.856;2023-08-24T02:29:01;55.29;29.03;71.53;;
78074;Laerm;67283;50.960;13.856;2023-08-24T02:31:29;43.62;28.53;61.29;;
78074;Laerm;67283;50.960;13.856;2023-08-24T02:33:57;51.50;28.72;69.75;;
78074;Laerm;67283;50.960;13.856;2023-08-24T02:36:28;29.85;28.42;38.49;;
78074;Laerm;67283;50.960;13.856;2023-08-24T02:38:58;49.77;28.61;67.28;;
78074;Laerm;67283;50.960;13.856;2023-08-24T02:41:26;54.85;28.50;69.98;;
78074;Laerm;67283;50.960;13.856;2023-08-24T02:43:54;30.04;28.47;38.12;;
78074;Laerm;67283;50.960;13.856;2023-08-24T02:46:22;56.86;28.91;70.79;;
78074;Laerm;67283;50.960;13.856;2023-08-24T02:48:50;29.77;28.09;37.84;;
78074;Laerm;67283;50.960;13.856;2023-08-24T02:51:20;51.44;28.15;70.28;;
78074;Laerm;67283;50.960;13.856;2023-08-24T02:53:51;53.32;28.73;71.96;;
78074;Laerm;67283;50.960;13.856;2023-08-24T02:56:19;30.32;28.80;34.53;;
78074;Laerm;67283;50.960;13.856;2023-08-24T02:58:47;49.40;28.81;66.41;;
78074;Laerm;67283;50.960;13.856;2023-08-24T03:01:15;53.66;29.11;71.65;;
78074;Laerm;67283;50.960;13.856;2023-08-24T03:03:43;58.42;29.91;70.93;;
78074;Laerm;67283;50.960;13.856;2023-08-24T03:06:11;52.81;28.99;68.59;;
78074;Laerm;67283;50.960;13.856;2023-08-24T03:08:39;51.48;28.66;67.54;;
78074;Laerm;67283;50.960;13.856;2023-08-24T03:11:10;56.74;29.13;71.47;;
78074;Laerm;67283;50.960;13.856;2023-08-24T03:13:38;58.76;29.43;73.43;;
78074;Laerm;67283;50.960;13.856;2023-08-24T03:16:06;59.13;29.16;72.62;;
78074;Laerm;67283;50.960;13.856;2023-08-24T03:18:35;54.36;28.65;70.56;;
78074;Laerm;67283;50.960;13.856;2023-08-24T03:21:03;54.25;29.13;69.03;;
78074;Laerm;67283;50.960;13.856;2023-08-24T03:23:31;58.87;30.16;71.02;;
78074;Laerm;67283;50.960;13.856;2023-08-24T03:25:59;60.84;29.10;73.66;;
78074;Laerm;67283;50.960;13.856;2023-08-24T03:28:30;58.65;29.34;76.64;;
78074;Laerm;67283;50.960;13.856;2023-08-24T03:30:58;64.96;36.13;79.12;;
78074;Laerm;67283;50.960;13.856;2023-08-24T03:33:27;58.83;33.13;74.11;;
78074;Laerm;67283;50.960;13.856;2023-08-24T03:35:55;62.66;32.90;77.83;;
78074;Laerm;67283;50.960;13.856;2023-08-24T03:38:23;54.04;29.63;70.82;;
78074;Laerm;67283;50.960;13.856;2023-08-24T03:40:52;61.57;31.14;72.41;;
78074;Laerm;67283;50.960;13.856;2023-08-24T03:43:20;57.96;30.17;70.50;;
78074;Laerm;67283;50.960;13.856;2023-08-24T03:45:50;61.53;36.61;74.02;;
78074;Laerm;67283;50.960;13.856;2023-08-24T03:48:16;57.81;30.36;75.09;;
78074;Laerm;67283;50.960;13.856;2023-08-24T03:50:44;58.17;30.13;72.05;;
78074;Laerm;67283;50.960;13.856;2023-08-24T03:53:12;60.76;29.69;74.56;;
78074;Laerm;67283;50.960;13.856;2023-08-24T03:55:40;59.56;31.98;71.45;;
78074;Laerm;67283;50.960;13.856;2023-08-24T03:58:08;57.66;32.41;73.27;;
78074;Laerm;67283;50.960;13.856;2023-08-24T04:00:37;59.89;29.63;74.25;;
78074;Laerm;67283;50.960;13.856;2023-08-24T04:03:09;59.44;35.04;77.01;;
78074;Laerm;67283;50.960;13.856;2023-08-24T04:05:37;61.65;30.95;75.25;;
78074;Laerm;67283;50.960;13.856;2023-08-24T04:08:05;63.31;30.72;78.82;;
78074;Laerm;67283;50.960;13.856;2023-08-24T04:10:34;60.09;29.79;76.86;;
78074;Laerm;67283;50.960;13.856;2023-08-24T04:13:02;56.84;29.34;71.26;;
78074;Laerm;67283;50.960;13.856;2023-08-24T04:15:30;57.50;31.60;69.88;;
78074;Laerm;67283;50.960;13.856;2023-08-24T04:17:58;62.86;38.83;75.87;;
78074;Laerm;67283;50.960;13.856;2023-08-24T04:20:29;62.15;36.03;78.58;;
78074;Laerm;67283;50.960;13.856;2023-08-24T04:22:57;62.15;33.14;73.22;;
78074;Laerm;67283;50.960;13.856;2023-08-24T04:25:25;61.78;33.12;73.23;;
78074;Laerm;67283;50.960;13.856;2023-08-24T04:27:54;60.85;40.81;72.03;;
78074;Laerm;67283;50.960;13.856;2023-08-24T04:30:22;60.66;35.69;72.32;;
78074;Laerm;67283;50.960;13.856;2023-08-24T04:32:50;60.37;38.70;72.00;;
78074;Laerm;67283;50.960;13.856;2023-08-24T04:35:18;58.04;32.42;72.44;;
78074;Laerm;67283;50.960;13.856;2023-08-24T04:37:49;57.70;31.70;70.92;;
78074;Laerm;67283;50.960;13.856;2023-08-24T04:40:17;62.65;30.20;78.34;;
78074;Laerm;67283;50.960;13.856;2023-08-24T04:42:45;63.61;39.74;74.43;;
78074;Laerm;67283;50.960;13.856;2023-08-24T04:45:13;61.08;30.88;72.95;;
78074;Laerm;67283;50.960;13.856;2023-08-24T04:47:41;61.79;33.71;74.00;;
78074;Laerm;67283;50.960;13.856;2023-08-24T04:50:09;60.50;33.96;71.81;;
78074;Laerm;67283;50.960;13.856;2023-08-24T04:52:38;62.65;35.58;73.69;;
78074;Laerm;67283;50.960;13.856;2023-08-24T04:55:09;61.04;30.70;77.02;;
78074;Laerm;67283;50.960;13.856;2023-08-24T04:57:37;61.04;30.70;77.02;;
78074;Laerm;67283;50.960;13.856;2023-08-24T05:00:07;61.33;30.25;74.67;;
78074;Laerm;67283;50.960;13.856;2023-08-24T05:02:40;57.88;30.95;70.55;;
78074;Laerm;67283;50.960;13.856;2023-08-24T05:05:09;57.88;30.95;70.55;;
78074;Laerm;67283;50.960;13.856;2023-08-24T05:07:39;62.43;32.68;76.69;;
78074;Laerm;67283;50.960;13.856;2023-08-24T05:10:10;62.21;41.11;73.83;;
78074;Laerm;67283;50.960;13.856;2023-08-24T05:12:38;64.05;35.02;77.81;;
78074;Laerm;67283;50.960;13.856;2023-08-24T05:15:06;57.07;31.95;69.91;;
78074;Laerm;67283;50.960;13.856;2023-08-24T05:17:35;62.87;32.04;73.69;;
78074;Laerm;67283;50.960;13.856;2023-08-24T05:20:03;62.02;33.31;74.17;;
78074;Laerm;67283;50.960;13.856;2023-08-24T05:22:32;62.00;37.70;74.60;;
78074;Laerm;67283;50.960;13.856;2023-08-24T05:25:00;62.03;40.37;73.95;;
78074;Laerm;67283;50.960;13.856;2023-08-24T05:27:31;59.53;31.67;72.36;;
78074;Laerm;67283;50.960;13.856;2023-08-24T05:29:59;63.94;31.11;79.25;;
78074;Laerm;67283;50.960;13.856;2023-08-24T05:32:27;62.03;34.45;74.17;;
78074;Laerm;67283;50.960;13.856;2023-08-24T05:34:55;63.43;36.42;75.60;;
78074;Laerm;67283;50.960;13.856;2023-08-24T05:37:23;63.43;36.42;75.60;;
78074;Laerm;67283;50.960;13.856;2023-08-24T05:39:51;61.79;30.87;80.85;;
78074;Laerm;67283;50.960;13.856;2023-08-24T05:42:19;61.81;31.32;74.81;;
78074;Laerm;67283;50.960;13.856;2023-08-24T05:44:50;53.14;30.58;68.53;;
78074;Laerm;67283;50.960;13.856;2023-08-24T05:47:18;60.94;31.91;75.83;;
78074;Laerm;67283;50.960;13.856;2023-08-24T05:49:46;60.94;31.91;75.83;;
78074;Laerm;67283;50.960;13.856;2023-08-24T05:52:14;60.81;29.63;75.23;;
78074;Laerm;67283;50.960;13.856;2023-08-24T05:54:42;59.82;31.60;72.40;;
78074;Laerm;67283;50.960;13.856;2023-08-24T05:57:10;59.56;32.08;72.50;;
78074;Laerm;67283;50.960;13.856;2023-08-24T05:59:38;62.44;35.74;78.57;;
78074;Laerm;67283;50.960;13.856;2023-08-24T06:02:09;62.44;35.74;78.57;;
78074;Laerm;67283;50.960;13.856;2023-08-24T06:04:37;58.21;29.38;71.53;;
78074;Laerm;67283;50.960;13.856;2023-08-24T06:07:05;59.91;28.99;73.73;;
78074;Laerm;67283;50.960;13.856;2023-08-24T06:09:33;59.30;29.56;73.20;;
78074;Laerm;67283;50.960;13.856;2023-08-24T06:12:01;58.65;29.65;71.86;;
78074;Laerm;67283;50.960;13.856;2023-08-24T06:14:29;56.31;29.89;69.87;;
78074;Laerm;67283;50.960;13.856;2023-08-24T06:16:57;59.77;33.00;75.23;;
78074;Laerm;67283;50.960;13.856;2023-08-24T06:19:28;60.13;32.40;77.98;;
78074;Laerm;67283;50.960;13.856;2023-08-24T06:21:56;61.24;32.28;77.28;;
78074;Laerm;67283;50.960;13.856;2023-08-24T06:24:24;59.54;29.48;75.30;;
78074;Laerm;67283;50.960;13.856;2023-08-24T06:26:52;59.54;29.48;75.30;;
78074;Laerm;67283;50.960;13.856;2023-08-24T06:29:20;60.29;30.10;73.57;;
78074;Laerm;67283;50.960;13.856;2023-08-24T06:31:48;55.91;29.85;70.41;;
78074;Laerm;67283;50.960;13.856;2023-08-24T06:34:16;57.39;29.42;72.65;;
78074;Laerm;67283;50.960;13.856;2023-08-24T06:36:47;34.74;29.85;54.15;;
78074;Laerm;67283;50.960;13.856;2023-08-24T06:39:15;55.73;31.06;69.27;;
78074;Laerm;67283;50.960;13.856;2023-08-24T06:41:44;58.38;34.99;73.74;;
78074;Laerm;67283;50.960;13.856;2023-08-24T06:44:12;58.31;33.32;71.87;;
78074;Laerm;67283;50.960;13.856;2023-08-24T06:46:40;59.82;34.08;72.95;;
78074;Laerm;67283;50.960;13.856;2023-08-24T06:49:08;59.56;33.34;72.42;;
78074;Laerm;67283;50.960;13.856;2023-08-24T06:51:37;57.76;29.19;74.45;;
78074;Laerm;67283;50.960;13.856;2023-08-24T06:54:07;60.34;29.26;75.09;;
78074;Laerm;67283;50.960;13.856;2023-08-24T06:56:35;59.32;32.13;73.44;;
78074;Laerm;67283;50.960;13.856;2023-08-24T06:59:03;55.00;31.85;69.32;;
78074;Laerm;67283;50.960;13.856;2023-08-24T07:01:31;60.14;35.77;75.15;;
78074;Laerm;67283;50.960;13.856;2023-08-24T07:03:59;58.66;35.31;75.37;;
78074;Laerm;67283;50.960;13.856;2023-08-24T07:06:28;57.67;29.62;74.50;;
78074;Laerm;67283;50.960;13.856;2023-08-24T07:08:56;63.87;35.17;80.42;;
78074;Laerm;67283;50.960;13.856;2023-08-24T07:11:27;62.75;30.82;83.09;;
78074;Laerm;67283;50.960;13.856;2023-08-24T07:13:55;59.68;30.46;72.52;;
78074;Laerm;67283;50.960;13.856;2023-08-24T07:16:23;56.19;31.35;72.46;;
78074;Laerm;67283;50.960;13.856;2023-08-24T07:18:51;60.91;30.79;75.75;;
78074;Laerm;67283;50.960;13.856;2023-08-24T07:21:19;60.81;32.42;73.57;;
78074;Laerm;67283;50.960;13.856;2023-08-24T07:23:47;56.93;33.49;74.72;;
78074;Laerm;67283;50.960;13.856;2023-08-24T07:26:15;57.84;33.29;71.71;;
78074;Laerm;67283;50.960;13.856;2023-08-24T07:28:46;65.90;38.34;80.10;;
78074;Laerm;67283;50.960;13.856;2023-08-24T07:31:14;65.90;38.34;80.10;;
78074;Laerm;67283;50.960;13.856;2023-08-24T07:33:42;63.28;34.69;83.28;;
78074;Laerm;67283;50.960;13.856;2023-08-24T07:36:11;59.31;31.92;73.32;;
78074;Laerm;67283;50.960;13.856;2023-08-24T07:38:39;50.37;29.54;68.05;;
78074;Laerm;67283;50.960;13.856;2023-08-24T07:41:07;58.32;29.79;71.48;;
78074;Laerm;67283;50.960;13.856;2023-08-24T07:43:37;55.80;29.16;70.82;;
78074;Laerm;67283;50.960;13.856;2023-08-24T07:46:07;60.79;35.76;73.90;;
78074;Laerm;67283;50.960;13.856;2023-08-24T07:48:36;58.02;33.81;68.90;;
78074;Laerm;67283;50.960;13.856;2023-08-24T07:51:04;61.97;31.61;74.53;;
78074;Laerm;67283;50.960;13.856;2023-08-24T07:53:32;60.42;33.91;77.40;;
78074;Laerm;67283;50.960;13.856;2023-08-24T07:56:00;61.67;31.47;74.86;;
78074;Laerm;67283;50.960;13.856;2023-08-24T07:58:28;61.71;30.89;81.16;;
78074;Laerm;67283;50.960;13.856;2023-08-24T08:00:57;61.71;32.75;77.29;;
78074;Laerm;67283;50.960;13.856;2023-08-24T08:03:28;63.31;43.52;79.05;;
78074;Laerm;67283;50.960;13.856;2023-08-24T08:05:56;63.35;52.59;73.39;;
78074;Laerm;67283;50.960;13.856;2023-08-24T08:08:24;65.47;59.98;77.26;;
78074;Laerm;67283;50.960;13.856;2023-08-24T08:10:57;63.61;59.18;72.93;;
78074;Laerm;67283;50.960;13.856;2023-08-24T08:13:25;63.57;58.82;70.57;;
78074;Laerm;67283;50.960;13.856;2023-08-24T08:15:53;64.03;58.48;72.23;;
78074;Laerm;67283;50.960;13.856;2023-08-24T08:18:21;61.80;58.36;68.78;;
78074;Laerm;67283;50.960;13.856;2023-08-24T08:20:52;64.61;57.76;81.78;;
78074;Laerm;67283;50.960;13.856;2023-08-24T08:23:20;63.24;57.51;74.36;;
78074;Laerm;67283;50.960;13.856;2023-08-24T08:25:48;63.88;57.95;72.30;;
78074;Laerm;67283;50.960;13.856;2023-08-24T08:28:16;66.10;57.68;79.66;;
78074;Laerm;67283;50.960;13.856;2023-08-24T08:30:45;63.97;57.57;78.71;;
78074;Laerm;67283;50.960;13.856;2023-08-24T08:33:13;62.74;56.59;78.74;;
78074;Laerm;67283;50.960;13.856;2023-08-24T08:35:41;68.46;57.57;84.70;;
78074;Laerm;67283;50.960;13.856;2023-08-24T08:38:12;61.09;57.29;70.00;;
78074;Laerm;67283;50.960;13.856;2023-08-24T08:40:40;63.29;56.93;71.68;;
78074;Laerm;67283;50.960;13.856;2023-08-24T08:43:08;62.98;56.99;72.32;;
78074;Laerm;67283;50.960;13.856;2023-08-24T08:45:36;62.10;57.27;71.29;;
78074;Laerm;67283;50.960;13.856;2023-08-24T08:48:04;62.10;57.27;71.29;;
78074;Laerm;67283;50.960;13.856;2023-08-24T08:50:33;63.06;56.04;77.38;;
78074;Laerm;67283;50.960;13.856;2023-08-24T08:53:02;64.02;56.99;72.63;;
78074;Laerm;67283;50.960;13.856;2023-08-24T08:55:32;64.02;56.99;72.63;;
78074;Laerm;67283;50.960;13.856;2023-08-24T08:58:01;64.23;56.07;78.20;;
78074;Laerm;67283;50.960;13.856;2023-08-24T09:00:29;64.23;56.07;78.20;;
78074;Laerm;67283;50.960;13.856;2023-08-24T09:02:59;65.27;56.86;80.91;;
